createdAt,value
2022-08-05T00:01:49.114Z,96073.69
2022-08-05T00:04:17.874Z,96085.84
2022-08-05T00:06:47.064Z,96087.28
2022-08-05T00:09:16.056Z,96106.53
2022-08-05T00:11:49.190Z,96101.56
2022-08-05T00:14:27.822Z,96114.84
2022-08-05T00:16:57.964Z,96139.88
2022-08-05T00:19:33.252Z,96138.59
2022-08-05T00:22:02.199Z,96141.59
2022-08-05T00:24:30.978Z,96124.94
2022-08-05T00:26:59.904Z,96118.00
2022-08-05T00:29:37.569Z,96108.47
2022-08-05T00:32:12.532Z,96116.31
2022-08-05T00:35:04.182Z,96104.78
2022-08-05T00:37:35.887Z,96094.22
2022-08-05T00:40:26.723Z,96090.78
2022-08-05T00:42:59.828Z,96079.47
2022-08-05T00:45:38.121Z,96076.66
2022-08-05T00:48:27.731Z,96055.47
2022-08-05T00:50:59.095Z,96031.84
2022-08-05T00:54:00.792Z,96007.19
2022-08-05T00:56:17.393Z,95984.41
2022-08-05T00:58:50.505Z,95966.94
2022-08-05T01:01:41.973Z,95952.00
2022-08-05T01:04:13.851Z,95953.88
2022-08-05T01:06:41.915Z,95946.84
2022-08-05T01:09:14.793Z,95943.78
2022-08-05T01:11:46.433Z,95941.84
2022-08-05T01:14:42.162Z,95959.63
2022-08-05T01:17:12.374Z,95971.09
2022-08-05T01:20:01.265Z,95984.56
2022-08-05T01:22:47.798Z,95984.53
2022-08-05T01:25:54.062Z,96003.91
2022-08-05T01:28:39.680Z,96020.03
2022-08-05T01:31:13.355Z,96028.06
2022-08-05T01:33:53.497Z,96021.78
2022-08-05T01:36:28.365Z,96027.88
2022-08-05T01:39:01.127Z,95993.63
2022-08-05T01:41:33.996Z,95986.88
2022-08-05T01:44:02.852Z,96033.41
2022-08-05T01:46:42.099Z,96075.91
2022-08-05T01:49:24.273Z,96094.56
2022-08-05T01:51:59.464Z,96104.41
2022-08-05T01:54:46.152Z,96102.84
2022-08-05T01:58:13.648Z,96104.16
2022-08-05T02:00:12.036Z,96082.03
2022-08-05T02:02:54.307Z,96073.31
2022-08-05T02:05:30.864Z,96065.84
2022-08-05T02:08:02.091Z,96043.66
2022-08-05T02:10:38.126Z,96033.28
2022-08-05T02:13:17.765Z,96005.41
2022-08-05T02:15:54.366Z,96004.53
2022-08-05T02:18:35.276Z,96012.56
2022-08-05T02:21:15.128Z,96012.19
2022-08-05T02:23:46.030Z,96007.34
2022-08-05T02:26:22.514Z,96006.56
2022-08-05T02:28:51.033Z,95990.88
2022-08-05T02:31:23.855Z,95967.78
2022-08-05T02:33:57.488Z,95975.81
2022-08-05T02:36:31.563Z,95958.97
2022-08-05T02:39:02.308Z,95956.28
2022-08-05T02:41:42.876Z,95954.75
2022-08-05T02:44:21.883Z,95980.16
2022-08-05T02:46:58.731Z,95984.31
2022-08-05T02:49:40.893Z,96006.13
2022-08-05T02:52:29.918Z,96036.47
2022-08-05T02:55:01.851Z,96064.38
2022-08-05T02:58:09.951Z,96105.56
2022-08-05T03:00:22.105Z,96182.53
2022-08-05T03:02:54.082Z,96218.19
2022-08-05T03:06:54.060Z,96207.16
2022-08-05T03:08:11.749Z,96188.97
2022-08-05T03:11:55.638Z,96186.63
2022-08-05T03:13:51.510Z,96196.19
2022-08-05T03:16:21.617Z,96179.53
2022-08-05T03:18:49.055Z,96174.59
2022-08-05T03:21:16.703Z,96157.59
2022-08-05T03:23:45.553Z,96150.72
2022-08-05T03:26:31.941Z,96138.47
2022-08-05T03:29:00.445Z,96139.25
2022-08-05T03:31:57.262Z,96114.38
2022-08-05T03:34:24.448Z,96119.56
2022-08-05T03:36:52.338Z,96134.47
2022-08-05T03:39:27.040Z,96149.72
2022-08-05T03:41:56.704Z,96169.22
2022-08-05T03:44:24.875Z,96165.59
2022-08-05T03:46:56.656Z,96171.69
2022-08-05T03:49:51.053Z,96174.91
2022-08-05T03:55:34.350Z,96189.53
2022-08-05T03:56:05.556Z,96201.75
2022-08-05T03:58:28.858Z,96210.59
2022-08-05T04:01:00.310Z,96200.69
2022-08-05T04:03:29.520Z,96207.69
2022-08-05T04:05:59.398Z,96201.50
2022-08-05T04:08:34.953Z,96194.69
2022-08-05T04:11:08.716Z,96193.44
2022-08-05T04:13:50.407Z,96212.78
2022-08-05T04:16:25.093Z,96213.34
2022-08-05T04:18:57.925Z,96217.41
2022-08-05T04:22:09.624Z,96238.09
2022-08-05T04:24:14.235Z,96234.09
2022-08-05T04:26:47.395Z,96238.97
2022-08-05T04:29:14.679Z,96231.34
2022-08-05T04:31:42.921Z,96235.22
2022-08-05T04:34:32.890Z,96233.19
2022-08-05T04:36:57.882Z,96250.81
2022-08-05T04:39:27.611Z,96251.81
2022-08-05T04:41:55.543Z,96243.44
2022-08-05T04:44:30.017Z,96238.16
2022-08-05T04:47:08.924Z,96244.41
2022-08-05T04:50:01.331Z,96256.19
2022-08-05T04:52:28.465Z,96249.97
2022-08-05T04:54:57.343Z,96258.03
2022-08-05T04:57:29.149Z,96252.47
2022-08-05T04:59:58.624Z,96230.41
2022-08-05T05:02:36.407Z,96232.72
2022-08-05T05:05:16.681Z,96238.31
2022-08-05T05:08:14.382Z,96239.44
2022-08-05T05:10:56.755Z,96237.22
2022-08-05T05:13:24.223Z,96234.28
2022-08-05T05:15:56.819Z,96222.84
2022-08-05T05:18:33.372Z,96228.22
2022-08-05T05:21:02.247Z,96226.66
2022-08-05T05:23:39.327Z,96205.06
2022-08-05T05:26:18.560Z,96209.50
2022-08-05T05:28:46.113Z,96212.38
2022-08-05T05:31:13.965Z,96200.75
2022-08-05T05:33:59.148Z,96192.44
2022-08-05T05:36:28.670Z,96195.84
2022-08-05T05:38:58.055Z,96199.59
2022-08-05T05:41:26.493Z,96181.22
2022-08-05T05:44:35.513Z,96183.94
2022-08-05T05:46:56.248Z,96177.22
2022-08-05T05:49:26.986Z,96176.06
2022-08-05T05:51:55.684Z,96160.94
2022-08-05T05:54:50.374Z,96150.16
2022-08-05T05:57:13.881Z,96144.53
2022-08-05T05:59:48.850Z,96131.09
2022-08-05T06:02:16.476Z,96131.59
2022-08-05T06:04:44.619Z,96125.19
2022-08-05T06:07:16.635Z,96119.75
2022-08-05T06:10:01.403Z,96144.31
2022-08-05T06:12:31.314Z,96165.13
2022-08-05T06:15:03.276Z,96179.22
2022-08-05T06:17:31.134Z,96194.38
2022-08-05T06:19:59.895Z,96202.50
2022-08-05T06:22:29.848Z,96191.00
2022-08-05T06:24:58.063Z,96198.69
2022-08-05T06:28:12.714Z,96209.13
2022-08-05T06:30:20.038Z,96225.91
2022-08-05T06:32:50.822Z,96231.06
2022-08-05T06:36:03.172Z,96240.78
2022-08-05T06:38:11.679Z,96267.63
2022-08-05T06:40:44.409Z,96292.59
2022-08-05T06:43:58.027Z,96297.38
2022-08-05T06:46:03.788Z,96278.00
2022-08-05T06:48:54.539Z,96272.38
2022-08-05T06:51:29.937Z,96284.50
2022-08-05T06:54:04.102Z,96287.63
2022-08-05T06:56:34.610Z,96288.72
2022-08-05T06:59:09.520Z,96296.19
2022-08-05T07:01:41.494Z,96300.22
2022-08-05T07:04:10.173Z,96324.91
2022-08-05T07:06:37.589Z,96319.25
2022-08-05T07:09:11.406Z,96315.47
2022-08-05T07:11:41.271Z,96332.69
2022-08-05T07:14:30.274Z,96339.09
2022-08-05T07:18:02.278Z,96337.78
2022-08-05T07:22:39.054Z,96352.88
2022-08-05T07:25:22.620Z,96332.22
2022-08-05T07:27:57.742Z,96343.66
2022-08-05T07:30:33.591Z,96331.16
2022-08-05T07:33:09.286Z,96321.44
2022-08-05T07:36:03.319Z,96284.00
2022-08-05T07:38:34.461Z,96277.88
2022-08-05T07:42:08.121Z,96283.41
2022-08-05T07:43:57.790Z,96307.88
2022-08-05T07:46:30.664Z,96324.34
2022-08-05T07:49:04.918Z,96320.47
2022-08-05T07:51:40.856Z,96336.09
2022-08-05T07:54:31.510Z,96330.81
2022-08-05T07:57:17.982Z,96313.00
2022-08-05T07:59:53.607Z,96333.28
2022-08-05T08:02:30.835Z,96343.91
2022-08-05T08:04:59.188Z,96337.66
2022-08-05T08:07:28.379Z,96349.75
2022-08-05T08:09:56.581Z,96335.25
2022-08-05T08:12:35.310Z,96336.41
2022-08-05T08:15:15.307Z,96317.94
2022-08-05T08:17:49.934Z,96312.78
2022-08-05T08:21:00.452Z,96328.22
2022-08-05T08:24:00.338Z,96321.41
2022-08-05T08:26:02.705Z,96316.84
2022-08-05T08:28:59.830Z,96321.78
2022-08-05T08:31:44.886Z,96292.09
2022-08-05T08:34:12.294Z,96268.38
2022-08-05T08:36:50.186Z,96269.41
2022-08-05T08:39:20.740Z,96267.03
2022-08-05T08:41:50.814Z,96271.41
2022-08-05T08:45:19.418Z,96272.72
2022-08-05T08:48:07.009Z,96282.44
2022-08-05T08:50:30.155Z,96293.69
2022-08-05T08:53:07.874Z,96278.41
2022-08-05T08:56:03.555Z,96295.31
2022-08-05T08:58:43.389Z,96320.09
2022-08-05T09:01:17.383Z,96311.28
2022-08-05T09:03:48.202Z,96333.69
2022-08-05T09:06:21.441Z,96336.94
2022-08-05T09:08:51.912Z,96357.84
2022-08-05T09:11:19.215Z,96346.22
2022-08-05T09:14:54.414Z,96346.53
2022-08-05T09:16:55.120Z,96352.91
2022-08-05T09:19:27.953Z,96349.72
2022-08-05T09:22:22.532Z,96345.16
2022-08-05T09:24:59.760Z,96337.28
2022-08-05T09:28:04.308Z,96325.25
2022-08-05T09:30:28.463Z,96314.28
2022-08-05T09:33:02.651Z,96309.94
2022-08-05T09:35:32.800Z,96323.50
2022-08-05T09:38:12.148Z,96320.88
2022-08-05T09:40:52.386Z,96337.03
2022-08-05T09:43:41.207Z,96333.28
2022-08-05T09:46:29.121Z,96323.25
2022-08-05T09:49:06.802Z,96326.59
2022-08-05T09:51:39.879Z,96339.06
2022-08-05T09:54:09.491Z,96337.59
2022-08-05T09:56:39.499Z,96328.91
2022-08-05T09:59:09.335Z,96334.16
2022-08-05T10:01:45.805Z,96318.19
2022-08-05T10:04:16.105Z,96325.00
2022-08-05T10:06:59.418Z,96313.53
2022-08-05T10:09:29.860Z,96303.88
2022-08-05T10:12:18.525Z,96319.34
2022-08-05T10:15:34.305Z,96329.34
2022-08-05T10:18:20.254Z,96332.22
2022-08-05T10:20:53.759Z,96327.94
2022-08-05T10:23:55.246Z,96323.16
2022-08-05T10:26:13.803Z,96313.78
2022-08-05T10:28:47.139Z,96307.44
2022-08-05T10:32:53.997Z,96303.63
2022-08-05T10:34:09.100Z,96305.25
2022-08-05T10:36:41.260Z,96315.13
2022-08-05T10:39:59.367Z,96330.34
2022-08-05T10:42:18.882Z,96334.00
2022-08-05T10:45:00.215Z,96339.56
2022-08-05T10:47:36.863Z,96343.56
2022-08-05T10:50:32.341Z,96349.09
2022-08-05T10:53:03.145Z,96337.22
2022-08-05T10:55:32.863Z,96325.84
2022-08-05T10:58:21.016Z,96325.78
2022-08-05T11:00:54.892Z,96329.34
2022-08-05T11:03:26.938Z,96336.81
2022-08-05T11:06:14.576Z,96334.28
2022-08-05T11:09:16.903Z,96338.59
2022-08-05T11:11:53.627Z,96348.84
2022-08-05T11:17:57.745Z,96354.44
2022-08-05T11:20:44.011Z,96374.16
2022-08-05T11:24:05.321Z,96379.38
2022-08-05T11:26:29.013Z,96377.91
2022-08-05T11:29:13.901Z,96356.56
2022-08-05T11:31:57.686Z,96367.66
2022-08-05T11:34:47.459Z,96368.53
2022-08-05T11:38:28.186Z,96369.97
2022-08-05T11:41:35.146Z,96369.25
2022-08-05T11:44:05.653Z,96374.19
2022-08-05T11:47:09.996Z,96380.91
2022-08-05T11:49:26.403Z,96384.19
2022-08-05T11:51:54.265Z,96383.59
2022-08-05T11:54:33.355Z,96390.44
2022-08-05T11:57:08.418Z,96396.25
2022-08-05T11:59:51.298Z,96396.53
2022-08-05T12:02:23.908Z,96391.28
2022-08-05T12:04:59.011Z,96404.13
2022-08-05T12:08:03.683Z,96395.81
2022-08-05T12:10:24.773Z,96406.94
2022-08-05T12:13:15.509Z,96406.59
2022-08-05T12:15:49.775Z,96405.00
2022-08-05T12:18:20.758Z,96414.06
2022-08-05T12:20:53.260Z,96425.94
2022-08-05T12:23:21.225Z,96425.63
2022-08-05T12:25:56.902Z,96426.09
2022-08-05T12:28:38.235Z,96435.03
2022-08-05T12:31:06.140Z,96442.19
2022-08-05T12:33:36.643Z,96446.16
2022-08-05T12:36:08.978Z,96457.38
2022-08-05T12:38:40.258Z,96449.72
2022-08-05T12:41:16.503Z,96457.28
2022-08-05T12:44:01.533Z,96453.66
2022-08-05T12:46:31.837Z,96458.25
2022-08-05T12:49:13.136Z,96453.16
2022-08-05T12:52:13.619Z,96442.59
2022-08-05T12:54:34.205Z,96438.81
2022-08-05T12:57:04.469Z,96443.81
2022-08-05T13:01:56.720Z,96429.28
2022-08-05T13:02:42.305Z,96431.28
2022-08-05T13:05:15.399Z,96419.13
2022-08-05T13:08:01.046Z,96427.09
2022-08-05T13:10:32.998Z,96421.69
2022-08-05T13:13:00.555Z,96416.34
2022-08-05T13:15:41.529Z,96409.03
2022-08-05T13:18:20.358Z,96409.09
2022-08-05T13:20:50.141Z,96398.66
2022-08-05T13:23:22.541Z,96401.94
2022-08-05T13:25:59.218Z,96411.75
2022-08-05T13:28:29.723Z,96410.44
2022-08-05T13:31:00.182Z,96411.84
2022-08-05T13:34:22.860Z,96411.34
2022-08-05T13:36:26.832Z,96426.66
2022-08-05T13:38:57.760Z,96430.34
2022-08-05T13:41:25.695Z,96422.88
2022-08-05T13:44:05.520Z,96424.78
2022-08-05T13:46:51.035Z,96423.91
2022-08-05T13:49:21.089Z,96425.88
2022-08-05T13:51:48.911Z,96430.88
2022-08-05T13:54:25.010Z,96426.69
2022-08-05T13:56:53.599Z,96427.81
2022-08-05T13:59:24.308Z,96436.75
2022-08-05T14:02:00.733Z,96429.13
2022-08-05T14:04:49.574Z,96428.72
2022-08-05T14:07:55.375Z,96427.84
2022-08-05T14:10:18.617Z,96425.78
2022-08-05T14:12:48.900Z,96428.72
2022-08-05T14:16:08.908Z,96432.22
2022-08-05T14:18:06.000Z,96424.19
2022-08-05T14:20:49.129Z,96429.63
2022-08-05T14:23:25.660Z,96427.25
2022-08-05T14:25:57.969Z,96437.94
2022-08-05T14:28:27.309Z,96432.22
2022-08-05T14:31:00.524Z,96437.38
2022-08-05T14:33:56.655Z,96427.22
2022-08-05T14:36:21.227Z,96424.78
2022-08-05T14:38:51.808Z,96439.97
2022-08-05T14:41:19.632Z,96440.63
2022-08-05T14:43:58.911Z,96445.78
2022-08-05T14:46:30.825Z,96447.78
2022-08-05T14:49:06.794Z,96461.50
2022-08-05T14:51:42.513Z,96456.38
2022-08-05T14:54:29.548Z,96456.06
2022-08-05T14:56:58.956Z,96473.25
2022-08-05T14:59:29.470Z,96466.88
2022-08-05T15:02:03.332Z,96479.25
2022-08-05T15:04:30.938Z,96478.72
2022-08-05T15:07:00.077Z,96485.22
2022-08-05T15:09:51.152Z,96478.03
2022-08-05T15:12:16.419Z,96464.25
2022-08-05T15:14:50.301Z,96471.00
2022-08-05T15:17:46.815Z,96472.47
2022-08-05T15:20:18.834Z,96482.53
2022-08-05T15:22:54.038Z,96482.94
2022-08-05T15:25:51.615Z,96487.97
2022-08-05T15:28:15.717Z,96499.38
2022-08-05T15:30:45.913Z,96496.44
2022-08-05T15:34:05.886Z,96486.38
2022-08-05T15:36:05.150Z,96493.19
2022-08-05T15:38:40.880Z,96499.66
2022-08-05T15:41:20.780Z,96493.75
2022-08-05T15:43:51.666Z,96498.16
2022-08-05T15:46:24.161Z,96503.53
2022-08-05T15:49:00.681Z,96500.75
2022-08-05T15:52:03.607Z,96507.72
2022-08-05T15:54:34.719Z,96499.63
2022-08-05T15:57:02.961Z,96501.25
2022-08-05T15:59:36.136Z,96496.72
2022-08-05T16:02:09.612Z,96501.50
2022-08-05T16:04:44.005Z,96512.09
2022-08-05T16:07:11.874Z,96519.59
2022-08-05T16:09:43.511Z,96513.88
2022-08-05T16:12:11.501Z,96511.28
2022-08-05T16:14:39.830Z,96516.41
2022-08-05T16:17:07.641Z,96530.06
2022-08-05T16:20:05.723Z,96523.56
2022-08-05T16:22:27.842Z,96528.69
2022-08-05T16:25:08.193Z,96533.56
2022-08-05T16:28:00.715Z,96525.78
2022-08-05T16:30:31.971Z,96539.53
2022-08-05T16:33:01.012Z,96532.66
2022-08-05T16:35:32.500Z,96544.19
2022-08-05T16:38:23.748Z,96556.25
2022-08-05T16:40:54.980Z,96564.22
2022-08-05T16:43:25.818Z,96565.84
2022-08-05T16:46:04.153Z,96559.75
2022-08-05T16:48:40.355Z,96560.47
2022-08-05T16:51:09.661Z,96569.59
2022-08-05T16:54:05.090Z,96562.25
2022-08-05T16:56:29.755Z,96566.47
2022-08-05T16:58:58.925Z,96568.03
2022-08-05T17:01:52.856Z,96570.72
2022-08-05T17:04:16.591Z,96579.13
2022-08-05T17:06:53.282Z,96577.06
2022-08-05T17:09:23.037Z,96585.44
2022-08-05T17:11:56.073Z,96584.09
2022-08-05T17:14:36.647Z,96588.38
2022-08-05T17:17:14.337Z,96590.19
2022-08-05T17:19:45.672Z,96585.78
2022-08-05T17:22:24.399Z,96594.09
2022-08-05T17:25:00.147Z,96590.78
2022-08-05T17:27:33.627Z,96592.03
2022-08-05T17:30:11.793Z,96595.84
2022-08-05T17:32:46.622Z,96600.63
2022-08-05T17:35:15.493Z,96595.31
2022-08-05T17:37:45.206Z,96592.25
2022-08-05T17:40:17.325Z,96595.56
2022-08-05T17:42:51.854Z,96605.84
2022-08-05T17:45:22.632Z,96599.56
2022-08-05T17:47:55.130Z,96595.13
2022-08-05T17:50:30.047Z,96594.72
2022-08-05T17:53:04.880Z,96601.50
2022-08-05T17:55:37.950Z,96600.31
2022-08-05T17:58:10.992Z,96596.91
2022-08-05T18:00:45.181Z,96605.19
2022-08-05T18:03:48.517Z,96607.34
2022-08-05T18:06:12.319Z,96605.13
2022-08-05T18:08:46.087Z,96610.44
2022-08-05T18:11:23.891Z,96601.59
2022-08-05T18:13:54.726Z,96610.56
2022-08-05T18:16:23.183Z,96616.53
2022-08-05T18:18:51.234Z,96616.97
2022-08-05T18:21:25.934Z,96629.63
2022-08-05T18:23:54.684Z,96631.22
2022-08-05T18:26:27.824Z,96634.50
2022-08-05T18:28:58.084Z,96633.63
2022-08-05T18:31:33.670Z,96632.34
2022-08-05T18:34:05.991Z,96633.03
2022-08-05T18:36:35.720Z,96636.75
2022-08-05T18:39:06.599Z,96643.25
2022-08-05T18:41:55.344Z,96643.97
2022-08-05T18:44:35.013Z,96646.03
2022-08-05T18:47:04.380Z,96654.66
2022-08-05T18:49:57.887Z,96660.97
2022-08-05T18:52:35.577Z,96660.75
2022-08-05T18:55:10.660Z,96666.13
2022-08-05T18:57:43.610Z,96668.59
2022-08-05T19:00:26.997Z,96667.88
2022-08-05T19:03:03.300Z,96673.78
2022-08-05T19:06:13.328Z,96672.47
2022-08-05T19:08:30.767Z,96679.63
2022-08-05T19:11:04.552Z,96682.09
2022-08-05T19:13:35.913Z,96687.50
2022-08-05T19:16:24.948Z,96701.19
2022-08-05T19:18:53.940Z,96703.03
2022-08-05T19:21:25.219Z,96707.66
2022-08-05T19:24:07.245Z,96711.91
2022-08-05T19:26:54.517Z,96718.25
2022-08-05T19:29:36.436Z,96730.19
2022-08-05T19:32:11.686Z,96739.38
2022-08-05T19:34:39.785Z,96742.00
2022-08-05T19:37:07.838Z,96739.63
2022-08-05T19:39:45.294Z,96750.69
2022-08-05T19:42:35.561Z,96748.56
2022-08-05T19:45:06.515Z,96756.97
2022-08-05T19:47:37.900Z,96760.19
2022-08-05T19:50:07.887Z,96758.59
2022-08-05T19:52:38.380Z,96758.25
2022-08-05T19:56:14.842Z,96757.88
2022-08-05T19:58:19.484Z,96761.25
2022-08-05T20:00:42.933Z,96767.56
2022-08-05T20:03:11.599Z,96769.41
2022-08-05T20:05:49.864Z,96770.09
2022-08-05T20:08:18.860Z,96777.78
2022-08-05T20:10:49.801Z,96785.13
2022-08-05T20:13:18.248Z,96791.97
2022-08-05T20:15:58.434Z,96794.53
2022-08-05T20:18:33.806Z,96792.84
2022-08-05T20:21:06.708Z,96790.94
2022-08-05T20:23:50.887Z,96799.69
2022-08-05T20:26:21.287Z,96803.75
2022-08-05T20:28:55.883Z,96810.56
2022-08-05T20:31:36.721Z,96813.69
2022-08-05T20:34:12.309Z,96808.25
2022-08-05T20:36:43.176Z,96815.31
2022-08-05T20:39:16.167Z,96813.84
2022-08-05T20:41:45.242Z,96818.13
2022-08-05T20:44:29.817Z,96816.34
2022-08-05T20:47:00.559Z,96847.41
2022-08-05T20:49:28.681Z,96848.00
2022-08-05T20:51:57.838Z,96853.31
2022-08-05T20:54:43.260Z,96853.91
2022-08-05T20:57:42.003Z,96855.50
2022-08-05T21:00:20.613Z,96861.03
2022-08-05T21:03:01.338Z,96865.47
2022-08-05T21:05:47.901Z,96861.06
2022-08-05T21:08:17.693Z,96877.88
2022-08-05T21:10:48.674Z,96877.97
2022-08-05T21:13:26.096Z,96872.84
2022-08-05T21:16:06.451Z,96875.63
2022-08-05T21:18:36.243Z,96868.19
2022-08-05T21:21:04.141Z,96875.22
2022-08-05T21:23:37.174Z,96877.78
2022-08-05T21:26:12.418Z,96883.41
2022-08-05T21:28:50.576Z,96877.63
2022-08-05T21:31:19.230Z,96883.19
2022-08-05T21:33:49.533Z,96879.25
2022-08-05T21:36:19.220Z,96883.53
2022-08-05T21:38:55.864Z,96887.03
2022-08-05T21:41:23.960Z,96872.88
2022-08-05T21:44:01.526Z,96886.63
2022-08-05T21:46:35.101Z,96885.34
2022-08-05T21:49:10.891Z,96884.53
2022-08-05T21:52:22.105Z,96888.38
2022-08-05T21:54:43.241Z,96885.19
2022-08-05T21:57:30.276Z,96885.47
2022-08-05T22:00:06.980Z,96885.53
2022-08-05T22:02:45.074Z,96888.75
2022-08-05T22:05:13.841Z,96880.47
2022-08-05T22:07:59.216Z,96885.19
2022-08-05T22:10:29.500Z,96889.78
2022-08-05T22:13:09.269Z,96892.06
2022-08-05T22:16:01.395Z,96885.91
2022-08-05T22:18:35.329Z,96882.19
2022-08-05T22:21:04.766Z,96881.72
2022-08-05T22:24:02.953Z,96895.66
2022-08-05T22:26:54.646Z,96896.59
2022-08-05T22:29:26.295Z,96893.56
2022-08-05T22:31:59.751Z,96904.13
2022-08-05T22:34:31.920Z,96907.91
2022-08-05T22:37:00.073Z,96918.09
2022-08-05T22:39:33.358Z,96905.94
2022-08-05T22:42:12.268Z,96903.72
2022-08-05T22:44:48.189Z,96904.75
2022-08-05T22:47:29.217Z,96914.72
2022-08-05T22:50:20.522Z,96912.75
2022-08-05T22:52:48.590Z,96913.16
2022-08-05T22:55:18.928Z,96916.91
2022-08-05T22:57:49.274Z,96915.69
2022-08-05T23:00:18.382Z,96910.72
2022-08-05T23:02:49.495Z,96914.97
2022-08-05T23:05:17.363Z,96908.28
2022-08-05T23:07:48.882Z,96906.56
2022-08-05T23:10:20.750Z,96909.75
2022-08-05T23:12:51.679Z,96916.66
2022-08-05T23:15:29.064Z,96921.44
2022-08-05T23:18:02.284Z,96920.22
2022-08-05T23:20:37.092Z,96920.22
2022-08-05T23:23:08.265Z,96919.97
2022-08-05T23:25:52.859Z,96923.72
2022-08-05T23:28:23.883Z,96932.13
2022-08-05T23:30:55.302Z,96929.81
2022-08-05T23:33:26.192Z,96921.28
2022-08-05T23:36:19.282Z,96935.13
2022-08-05T23:38:46.633Z,96932.88
2022-08-05T23:41:15.034Z,96939.84
2022-08-05T23:44:05.087Z,96934.38
2022-08-05T23:46:31.963Z,96938.59
2022-08-05T23:49:02.154Z,96939.34
2022-08-05T23:52:16.402Z,96944.31
2022-08-05T23:54:43.827Z,96941.75
2022-08-05T23:57:12.219Z,96946.06
